Time;durP1;ratioP1;P1;durP2;ratioP2;P2;SDS_P1;SDS_P2;PMS_P1;PMS_P2;Temp;Humidity;BMP_temperature;BMP_pressure;BME280_temperature;BME280_humidity;BME280_pressure;Samples;Min_cycle;Max_cycle;Signal;HPM_P1;HPM_P2
2023/11/16 00:00:06;;;;;;;10.53;8.00;;;9.80;99.90;;;;;;5015600;28;20054;-70
2023/11/16 00:02:34;;;;;;;10.23;7.67;;;9.70;99.90;;;;;;5015714;28;20022;-70
2023/11/16 00:05:02;;;;;;;9.77;7.37;;;9.80;99.90;;;;;;5015664;28;20034;-70
2023/11/16 00:07:28;;;;;;;9.77;6.47;;;9.80;99.90;;;;;;5015625;28;20022;-70
2023/11/16 00:09:54;;;;;;;7.47;6.13;;;9.80;99.90;;;;;;5017635;28;20045;-72
2023/11/16 00:12:20;;;;;;;7.10;5.90;;;9.80;99.90;;;;;;5017016;28;20033;-72
2023/11/16 00:14:46;;;;;;;7.43;6.63;;;9.70;99.90;;;;;;5017393;28;20026;-71
2023/11/16 00:17:12;;;;;;;8.27;6.10;;;9.70;99.90;;;;;;5017145;28;20025;-72
2023/11/16 00:19:38;;;;;;;11.27;6.20;;;9.70;99.90;;;;;;5016875;28;20079;-70
2023/11/16 00:22:04;;;;;;;9.93;5.70;;;9.60;99.90;;;;;;5016388;28;20084;-71
2023/11/16 00:24:30;;;;;;;30.53;5.90;;;9.60;99.90;;;;;;5016283;28;20026;-71
2023/11/16 00:26:56;;;;;;;26.40;5.47;;;9.50;99.90;;;;;;5016363;28;20033;-70
2023/11/16 00:29:22;;;;;;;35.20;4.83;;;9.50;99.90;;;;;;5015508;28;20029;-72
2023/11/16 00:31:47;;;;;;;29.43;5.27;;;9.50;99.90;;;;;;5014049;28;20428;-71
2023/11/16 00:34:14;;;;;;;16.87;5.30;;;9.40;99.90;;;;;;5015272;28;20116;-70
2023/11/16 00:36:40;;;;;;;12.33;5.00;;;9.30;99.90;;;;;;5015103;28;20030;-71
2023/11/16 00:39:07;;;;;;;6.07;4.33;;;9.30;99.90;;;;;;5015131;28;20025;-71
2023/11/16 00:41:37;;;;;;;7.43;5.20;;;9.30;99.90;;;;;;5015052;28;20080;-71
2023/11/16 00:44:05;;;;;;;7.37;5.23;;;9.30;99.90;;;;;;5014843;28;20107;-71
2023/11/16 00:46:32;;;;;;;7.10;5.53;;;9.30;99.90;;;;;;5014912;28;20022;-70
2023/11/16 00:48:58;;;;;;;7.80;5.50;;;9.30;99.90;;;;;;5014770;28;20018;-70
2023/11/16 00:51:27;;;;;;;8.70;5.73;;;9.30;99.90;;;;;;5014844;28;20117;-70
2023/11/16 00:53:52;;;;;;;8.53;5.40;;;9.20;99.90;;;;;;5013784;28;20492;-71
2023/11/16 00:56:18;;;;;;;8.60;5.63;;;9.30;99.90;;;;;;5014821;28;20061;-71
2023/11/16 00:58:44;;;;;;;7.03;5.57;;;9.30;99.90;;;;;;5014660;28;20033;-71
2023/11/16 01:01:12;;;;;;;7.43;6.27;;;9.30;99.90;;;;;;5014849;28;20441;-71
2023/11/16 01:03:39;;;;;;;6.33;5.37;;;9.20;99.90;;;;;;5014725;28;20423;-71
2023/11/16 01:06:05;;;;;;;8.07;6.10;;;9.20;99.90;;;;;;5015021;28;20026;-70
2023/11/16 01:08:36;;;;;;;9.33;6.03;;;9.20;99.90;;;;;;5014541;28;20014;-71
2023/11/16 01:11:04;;;;;;;8.37;6.87;;;9.20;99.90;;;;;;5014419;28;20026;-72
2023/11/16 01:13:38;;;;;;;9.60;7.23;;;9.20;99.90;;;;;;5014360;28;20033;-70
2023/11/16 01:16:13;;;;;;;11.53;7.57;;;9.10;99.90;;;;;;5014290;28;20120;-70
2023/11/16 01:18:46;;;;;;;9.27;6.80;;;9.20;99.90;;;;;;5014486;28;20085;-72
2023/11/16 01:21:13;;;;;;;12.68;8.30;;;9.20;99.90;;;;;;5014285;28;20510;-70
2023/11/16 01:23:39;;;;;;;9.53;7.87;;;9.20;99.90;;;;;;5014313;28;20105;-71
2023/11/16 01:26:14;;;;;;;11.77;8.57;;;9.20;99.90;;;;;;5014061;28;20033;-71
2023/11/16 01:28:49;;;;;;;10.53;7.03;;;9.20;99.90;;;;;;5013863;28;20092;-71
2023/11/16 01:31:16;;;;;;;11.07;8.00;;;9.20;99.90;;;;;;5014372;28;20045;-71
2023/11/16 01:33:43;;;;;;;10.17;6.73;;;9.20;99.90;;;;;;5014215;28;20037;-70
2023/11/16 01:36:13;;;;;;;7.07;6.23;;;9.20;99.90;;;;;;5013860;28;20053;-70
2023/11/16 01:38:42;;;;;;;8.77;5.87;;;9.20;99.90;;;;;;5013989;28;20026;-70
2023/11/16 01:41:09;;;;;;;8.07;5.70;;;9.30;99.90;;;;;;5014085;28;20538;-70
2023/11/16 01:43:36;;;;;;;8.90;6.03;;;9.30;99.90;;;;;;5014046;28;20030;-71
2023/11/16 01:46:06;;;;;;;9.17;5.90;;;9.20;99.90;;;;;;5013520;28;20172;-70
2023/11/16 01:48:35;;;;;;;9.17;6.40;;;9.30;99.90;;;;;;5013813;28;20031;-70
2023/11/16 01:51:06;;;;;;;8.03;5.77;;;9.20;99.90;;;;;;5013773;28;20038;-70
2023/11/16 01:53:54;;;;;;;9.00;6.50;;;9.30;99.90;;;;;;5013842;28;20429;-70
2023/11/16 01:56:20;;;;;;;7.90;6.13;;;9.20;99.90;;;;;;5013226;28;20045;-70
2023/11/16 01:58:51;;;;;;;7.67;5.93;;;9.20;99.90;;;;;;5011359;28;20408;-70
2023/11/16 02:01:18;;;;;;;10.37;6.33;;;9.20;99.90;;;;;;5010747;28;20038;-70
2023/11/16 02:03:46;;;;;;;9.93;6.27;;;9.20;99.90;;;;;;5042400;28;20131;-71
2023/11/16 02:06:12;;;;;;;9.77;6.20;;;9.20;99.90;;;;;;5013170;28;20468;-70
2023/11/16 02:08:41;;;;;;;9.60;5.88;;;9.20;99.90;;;;;;5013488;28;20411;-71
2023/11/16 02:11:07;;;;;;;9.93;6.20;;;9.20;99.90;;;;;;5013410;28;20037;-71
2023/11/16 02:13:33;;;;;;;7.77;6.23;;;9.20;99.90;;;;;;5013136;28;20021;-70
2023/11/16 02:16:00;;;;;;;9.18;6.38;;;9.10;99.90;;;;;;5013451;28;20080;-70
2023/11/16 02:18:26;;;;;;;9.67;5.50;;;9.10;99.90;;;;;;5011742;28;20492;-70
2023/11/16 02:20:55;;;;;;;8.93;5.93;;;9.10;99.90;;;;;;5012481;28;20050;-69
2023/11/16 02:23:21;;;;;;;9.83;6.40;;;9.20;99.90;;;;;;5012880;28;20431;-70
2023/11/16 02:25:49;;;;;;;7.30;5.63;;;9.10;99.90;;;;;;5013076;28;20109;-70
2023/11/16 02:28:16;;;;;;;11.50;4.93;;;9.10;99.90;;;;;;5012829;28;20097;-70
2023/11/16 02:30:43;;;;;;;7.13;4.80;;;9.10;99.90;;;;;;5013003;28;20045;-69
2023/11/16 02:33:09;;;;;;;11.87;5.50;;;9.10;99.90;;;;;;5013007;28;20484;-70
2023/11/16 02:35:35;;;;;;;10.70;5.60;;;9.10;99.90;;;;;;5013110;28;20080;-70
2023/11/16 02:38:03;;;;;;;13.03;6.30;;;9.10;99.90;;;;;;5012862;28;20080;-70
2023/11/16 02:40:29;;;;;;;5.93;5.17;;;9.10;99.90;;;;;;5012981;28;20045;-69
2023/11/16 02:42:55;;;;;;;13.33;5.73;;;9.00;99.90;;;;;;5012921;28;20455;-69
2023/11/16 02:45:25;;;;;;;8.93;5.27;;;9.00;99.90;;;;;;5012942;28;20026;-69
2023/11/16 02:47:52;;;;;;;8.10;5.20;;;9.00;99.90;;;;;;5013165;28;20022;-69
2023/11/16 02:50:20;;;;;;;8.13;5.87;;;9.00;99.90;;;;;;5012758;28;20128;-69
2023/11/16 02:52:46;;;;;;;7.00;5.50;;;9.00;99.90;;;;;;5012508;28;20026;-69
2023/11/16 02:55:12;;;;;;;8.73;5.57;;;8.90;99.90;;;;;;5012534;28;20026;-69
2023/11/16 02:57:39;;;;;;;6.17;5.30;;;8.90;99.90;;;;;;5012683;28;20036;-69
2023/11/16 03:00:08;;;;;;;9.03;5.03;;;9.00;99.90;;;;;;5012519;28;20495;-69
2023/11/16 03:02:34;;;;;;;8.70;5.03;;;8.90;99.90;;;;;;5012973;28;20026;-69
2023/11/16 03:04:59;;;;;;;6.97;5.07;;;8.90;99.90;;;;;;5011619;28;20376;-68
2023/11/16 03:07:25;;;;;;;12.87;5.60;;;8.90;99.90;;;;;;5012806;28;20495;-69
2023/11/16 03:09:51;;;;;;;11.10;5.23;;;8.90;99.90;;;;;;5012633;28;20034;-69
2023/11/16 03:12:18;;;;;;;6.40;4.80;;;8.90;99.90;;;;;;5012769;28;20018;-68
2023/11/16 03:14:44;;;;;;;9.50;5.23;;;8.90;99.90;;;;;;5012754;28;20057;-68
2023/11/16 03:17:10;;;;;;;7.60;4.70;;;;;;;;;;5012789;28;20113;-70
2023/11/16 03:19:41;;;;;;;7.37;5.10;;;8.70;99.90;;;;;;5011372;28;20033;-68
2023/11/16 03:22:07;;;;;;;7.50;4.73;;;8.70;99.90;;;;;;5012617;28;20028;-69
2023/11/16 03:24:33;;;;;;;9.00;4.60;;;8.60;99.90;;;;;;5012559;28;20105;-69
2023/11/16 03:26:59;;;;;;;6.37;4.37;;;8.60;99.90;;;;;;5012371;28;20479;-69
2023/11/16 03:29:25;;;;;;;8.87;4.50;;;8.60;99.90;;;;;;5012243;28;20026;-68
2023/11/16 03:31:51;;;;;;;7.43;4.37;;;8.60;99.90;;;;;;5013754;28;20062;-68
2023/11/16 03:34:17;;;;;;;10.13;5.07;;;8.50;99.90;;;;;;5016558;28;20022;-70
2023/11/16 03:36:43;;;;;;;6.50;4.20;;;8.50;99.90;;;;;;5016089;28;20026;-69
2023/11/16 03:39:12;;;;;;;6.83;4.97;;;8.50;99.90;;;;;;5016431;28;20101;-69
2023/11/16 03:41:38;;;;;;;5.33;4.07;;;8.50;99.90;;;;;;5015970;28;20037;-69
2023/11/16 03:44:05;;;;;;;9.03;3.97;;;8.50;99.90;;;;;;5016074;28;20033;-68
2023/11/16 03:46:31;;;;;;;7.37;4.13;;;8.50;99.90;;;;;;5014751;28;20030;-69
2023/11/16 03:48:57;;;;;;;5.60;4.00;;;8.50;99.90;;;;;;5015456;28;20033;-69
2023/11/16 03:51:23;;;;;;;6.90;3.73;;;8.50;99.90;;;;;;5015843;28;20034;-69
2023/11/16 03:53:48;;;;;;;7.50;4.13;;;8.50;99.90;;;;;;5015717;28;20025;-69
2023/11/16 03:56:14;;;;;;;6.13;4.17;;;8.50;99.90;;;;;;5016081;28;20026;-69
2023/11/16 03:58:40;;;;;;;7.23;4.50;;;8.50;99.90;;;;;;5015577;28;20100;-69
2023/11/16 04:01:06;;;;;;;5.47;4.00;;;8.50;99.90;;;;;;5016084;28;20029;-69
2023/11/16 04:03:33;;;;;;;13.00;4.70;;;8.50;99.90;;;;;;5015771;28;20025;-69
2023/11/16 04:05:59;;;;;;;6.63;4.77;;;8.40;99.90;;;;;;5015912;28;20022;-68
2023/11/16 04:08:26;;;;;;;9.03;4.70;;;8.40;99.90;;;;;;5015766;28;20108;-69
2023/11/16 04:10:51;;;;;;;8.63;5.20;;;8.50;99.90;;;;;;5014320;28;20129;-69
2023/11/16 04:13:20;;;;;;;8.23;4.30;;;8.40;99.90;;;;;;5015683;28;20108;-68
2023/11/16 04:15:47;;;;;;;8.70;4.83;;;8.40;99.90;;;;;;5015369;28;20030;-68
2023/11/16 04:18:12;;;;;;;8.87;5.17;;;8.40;99.90;;;;;;5013499;28;20449;-68
2023/11/16 04:20:38;;;;;;;11.00;5.23;;;8.40;99.90;;;;;;5015182;28;20057;-68
2023/11/16 04:23:05;;;;;;;8.37;5.30;;;8.40;99.90;;;;;;5015210;28;20057;-69
2023/11/16 04:25:33;;;;;;;15.67;6.30;;;8.40;99.90;;;;;;5015329;28;20077;-69
2023/11/16 04:27:59;;;;;;;13.60;5.37;;;8.30;99.90;;;;;;5015351;28;20045;-68
2023/11/16 04:30:28;;;;;;;12.97;5.67;;;8.30;99.90;;;;;;5015187;28;20495;-68
2023/11/16 04:32:55;;;;;;;9.30;5.20;;;8.30;99.90;;;;;;5015348;28;20022;-68
2023/11/16 04:35:21;;;;;;;8.10;5.10;;;8.30;99.90;;;;;;5015142;28;20025;-69
2023/11/16 04:37:48;;;;;;;8.17;4.87;;;8.30;99.90;;;;;;5014783;28;20033;-68
2023/11/16 04:40:14;;;;;;;9.27;5.43;;;8.30;99.90;;;;;;5014986;28;20109;-68
2023/11/16 04:42:44;;;;;;;7.60;5.17;;;8.30;99.90;;;;;;5014995;28;20104;-68
2023/11/16 04:45:11;;;;;;;7.80;4.77;;;8.30;99.90;;;;;;5013894;28;20026;-68
2023/11/16 04:47:39;;;;;;;6.47;4.50;;;8.30;99.90;;;;;;5014905;28;20030;-68
2023/11/16 04:50:06;;;;;;;9.20;4.83;;;8.20;99.90;;;;;;5014719;28;20508;-68
2023/11/16 04:52:34;;;;;;;8.20;4.90;;;8.20;99.90;;;;;;5014966;28;20395;-69
2023/11/16 04:55:00;;;;;;;8.50;4.60;;;8.30;99.90;;;;;;5014889;28;20095;-69
2023/11/16 04:57:26;;;;;;;11.57;4.83;;;8.30;99.90;;;;;;5014810;28;20033;-69
2023/11/16 04:59:53;;;;;;;13.57;5.07;;;8.20;99.90;;;;;;5014210;28;20769;-68
2023/11/16 05:02:20;;;;;;;9.37;4.70;;;8.20;99.90;;;;;;5014430;28;20030;-69
2023/11/16 05:04:46;;;;;;;18.50;5.00;;;8.20;99.90;;;;;;5014681;28;20026;-68
2023/11/16 05:07:12;;;;;;;13.63;4.93;;;8.20;99.90;;;;;;5014516;28;20033;-68
2023/11/16 05:09:38;;;;;;;13.13;4.63;;;8.20;99.90;;;;;;5014891;28;20412;-68
2023/11/16 05:12:08;;;;;;;7.60;4.27;;;8.10;99.90;;;;;;5014524;28;20080;-68
2023/11/16 05:14:34;;;;;;;9.03;4.30;;;8.20;99.90;;;;;;5014625;28;20037;-68
2023/11/16 05:17:03;;;;;;;8.10;4.63;;;8.10;99.90;;;;;;5014469;28;20036;-69
2023/11/16 05:19:29;;;;;;;8.90;4.10;;;8.10;99.90;;;;;;5014345;28;20531;-68
2023/11/16 05:21:55;;;;;;;7.73;4.13;;;8.10;99.90;;;;;;5014408;28;20079;-68
2023/11/16 05:24:21;;;;;;;6.00;3.83;;;8.10;99.90;;;;;;5014563;28;20026;-68
2023/11/16 05:26:47;;;;;;;8.13;3.80;;;8.10;99.90;;;;;;5014006;28;20033;-68
2023/11/16 05:29:12;;;;;;;6.70;3.53;;;8.10;99.90;;;;;;5014057;28;20040;-68
2023/11/16 05:31:38;;;;;;;5.87;3.70;;;8.00;99.90;;;;;;5014207;28;20416;-69
2023/11/16 05:34:07;;;;;;;9.20;4.47;;;8.10;99.90;;;;;;5014059;28;20379;-69
2023/11/16 05:36:34;;;;;;;9.27;3.73;;;8.00;99.90;;;;;;5013847;28;20447;-69
2023/11/16 05:39:00;;;;;;;6.10;3.40;;;8.00;99.90;;;;;;5012485;28;20053;-69
2023/11/16 05:41:27;;;;;;;5.63;3.60;;;8.00;99.90;;;;;;5013917;28;20058;-69
2023/11/16 05:43:53;;;;;;;4.93;3.10;;;8.00;99.90;;;;;;5013743;28;20026;-68
2023/11/16 05:46:19;;;;;;;6.10;3.20;;;8.00;99.90;;;;;;5014152;28;20072;-69
2023/11/16 05:48:45;;;;;;;4.90;2.67;;;8.00;99.90;;;;;;5013850;28;20055;-69
2023/11/16 05:51:11;;;;;;;7.33;2.90;;;8.00;99.90;;;;;;5013887;28;20038;-69
2023/11/16 05:53:38;;;;;;;6.13;2.97;;;8.00;99.90;;;;;;5013998;28;20384;-69
2023/11/16 05:56:04;;;;;;;9.37;3.03;;;7.90;99.90;;;;;;5013272;28;20022;-69
2023/11/16 05:58:29;;;;;;;7.03;2.73;;;8.00;99.90;;;;;;5013971;28;20029;-69
2023/11/16 06:00:55;;;;;;;11.63;2.70;;;8.00;99.90;;;;;;5010314;28;20133;-69
2023/11/16 06:03:26;;;;;;;5.77;2.90;;;8.00;99.90;;;;;;5013534;28;20025;-69
2023/11/16 06:05:53;;;;;;;5.77;2.90;;;7.90;99.90;;;;;;5013386;28;20025;-69
2023/11/16 06:08:20;;;;;;;6.33;3.00;;;7.90;99.90;;;;;;5013507;28;20018;-69
2023/11/16 06:10:46;;;;;;;6.27;3.13;;;7.90;99.90;;;;;;5013335;28;20041;-69
2023/11/16 06:13:11;;;;;;;7.80;2.90;;;7.90;99.90;;;;;;5013037;28;20026;-69
2023/11/16 06:15:37;;;;;;;9.83;3.10;;;7.90;99.90;;;;;;5011767;28;20109;-69
2023/11/16 06:18:03;;;;;;;12.17;3.13;;;7.90;99.90;;;;;;5013136;28;20040;-69
2023/11/16 06:20:29;;;;;;;7.23;3.27;;;7.90;99.90;;;;;;5013296;28;20025;-69
2023/11/16 06:22:55;;;;;;;9.33;2.90;;;7.90;99.90;;;;;;5013203;28;20014;-69
2023/11/16 06:25:21;;;;;;;6.03;3.13;;;7.90;99.90;;;;;;5012881;28;20083;-69
2023/11/16 06:27:48;;;;;;;10.23;3.17;;;7.90;99.90;;;;;;5013352;28;20018;-69
2023/11/16 06:30:14;;;;;;;11.30;4.00;;;7.90;99.90;;;;;;5013030;28;20037;-69
2023/11/16 06:32:42;;;;;;;6.40;3.03;;;7.90;99.90;;;;;;5012845;28;20449;-69
2023/11/16 06:35:08;;;;;;;4.43;2.83;;;7.90;99.90;;;;;;5012749;28;20056;-69
2023/11/16 06:37:34;;;;;;;8.97;3.30;;;7.90;99.90;;;;;;5012885;28;20050;-69
2023/11/16 06:40:00;;;;;;;7.60;3.00;;;7.90;99.90;;;;;;5013018;28;20393;-69
2023/11/16 06:42:26;;;;;;;7.40;3.20;;;8.00;99.90;;;;;;5012821;28;20026;-68
2023/11/16 06:44:52;;;;;;;6.13;3.27;;;7.90;99.90;;;;;;5012817;28;20026;-69
2023/11/16 06:47:18;;;;;;;9.47;3.10;;;7.90;99.90;;;;;;5012684;28;20029;-69
2023/11/16 06:49:49;;;;;;;4.80;2.80;;;7.90;99.90;;;;;;5012988;28;20042;-69
2023/11/16 06:52:17;;;;;;;7.93;2.90;;;7.90;99.90;;;;;;5012972;28;20112;-69
2023/11/16 06:54:42;;;;;;;4.67;2.90;;;8.00;99.90;;;;;;5012821;28;20022;-69
2023/11/16 06:57:13;;;;;;;9.83;3.43;;;8.00;99.90;;;;;;5011668;28;20022;-69
2023/11/16 06:59:42;;;;;;;8.90;3.30;;;8.00;99.90;;;;;;5012442;28;20046;-69
2023/11/16 07:02:08;;;;;;;11.67;3.37;;;8.00;99.90;;;;;;5012625;28;20103;-69
2023/11/16 07:04:37;;;;;;;8.10;3.57;;;8.00;99.90;;;;;;5012471;28;20033;-69
2023/11/16 07:07:03;;;;;;;7.03;3.43;;;8.10;99.90;;;;;;5016268;28;20022;-69
2023/11/16 07:09:30;;;;;;;3.97;2.87;;;8.10;99.90;;;;;;5016715;28;20035;-69
2023/11/16 07:11:57;;;;;;;5.97;3.13;;;8.10;99.90;;;;;;5016945;28;20480;-69
2023/11/16 07:14:23;;;;;;;7.80;3.43;;;8.20;99.90;;;;;;5016569;28;20108;-69
2023/11/16 07:16:50;;;;;;;8.30;3.83;;;8.30;99.90;;;;;;5016899;28;20026;-69
2023/11/16 07:19:16;;;;;;;8.13;3.10;;;8.30;99.90;;;;;;5016461;28;20423;-69
2023/11/16 07:21:42;;;;;;;8.03;3.67;;;8.40;99.90;;;;;;5016612;28;20091;-69
2023/11/16 07:24:10;;;;;;;5.50;3.00;;;8.50;99.90;;;;;;5016788;28;20453;-69
2023/11/16 07:26:36;;;;;;;6.33;2.83;;;8.60;99.90;;;;;;5016467;28;20054;-69
2023/11/16 07:29:02;;;;;;;4.70;3.20;;;8.70;99.90;;;;;;5016138;28;20037;-69
2023/11/16 07:31:28;;;;;;;8.07;3.13;;;8.80;99.90;;;;;;5015768;28;20034;-69
2023/11/16 07:33:54;;;;;;;6.37;3.43;;;8.90;99.90;;;;;;5015976;28;20091;-69
2023/11/16 07:36:27;;;;;;;7.50;3.47;;;9.00;99.90;;;;;;5016057;28;20029;-69
2023/11/16 07:38:54;;;;;;;11.27;3.60;;;9.00;99.90;;;;;;5015989;28;20121;-69
2023/11/16 07:41:20;;;;;;;9.30;3.43;;;9.10;99.90;;;;;;5016073;28;20029;-69
2023/11/16 07:43:47;;;;;;;9.00;4.10;;;9.20;99.90;;;;;;5016062;28;20104;-69
2023/11/16 07:46:13;;;;;;;14.13;4.60;;;9.20;99.90;;;;;;5016249;28;20029;-69
2023/11/16 07:48:40;;;;;;;10.83;4.17;;;9.30;99.90;;;;;;5016172;28;20022;-69
2023/11/16 07:51:07;;;;;;;8.13;3.93;;;9.30;99.90;;;;;;5015975;28;20765;-69
2023/11/16 07:53:33;;;;;;;5.97;3.73;;;9.40;99.90;;;;;;5016267;28;20049;-69
2023/11/16 07:56:05;;;;;;;6.30;3.50;;;9.40;99.90;;;;;;5015803;28;20064;-69
2023/11/16 07:58:34;;;;;;;11.18;3.60;;;9.40;99.90;;;;;;5015884;28;20353;-69
2023/11/16 08:01:11;;;;;;;7.67;4.60;;;9.50;99.90;;;;;;5015521;28;20054;-69
2023/11/16 08:03:43;;;;;;;12.93;3.70;;;9.70;99.90;;;;;;5015453;28;20392;-69
2023/11/16 08:06:12;;;;;;;9.52;3.08;;;9.70;99.90;;;;;;5014413;28;20041;-69
2023/11/16 08:08:47;;;;;;;7.57;3.13;;;9.80;99.90;;;;;;5015460;28;20108;-70
2023/11/16 08:11:14;;;;;;;9.00;3.33;;;9.70;99.90;;;;;;5010985;28;20030;-70
2023/11/16 08:13:47;;;;;;;9.90;3.40;;;9.80;99.90;;;;;;5015358;28;20022;-69
2023/11/16 08:16:15;;;;;;;6.03;3.23;;;9.90;99.90;;;;;;5015275;28;20030;-70
2023/11/16 08:18:44;;;;;;;5.93;3.57;;;10.00;99.90;;;;;;5014236;28;20095;-69
2023/11/16 08:21:11;;;;;;;11.27;3.00;;;10.10;99.90;;;;;;5015029;28;20468;-69
2023/11/16 08:23:43;;;;;;;5.07;2.73;;;10.20;99.90;;;;;;5015135;28;20499;-69
2023/11/16 08:26:10;;;;;;;9.40;2.92;;;10.20;99.90;;;;;;5015157;28;20022;-69
2023/11/16 08:28:40;;;;;;;7.57;2.70;;;10.30;99.90;;;;;;5015010;28;20447;-69
2023/11/16 08:31:06;;;;;;;6.78;2.58;;;10.30;99.90;;;;;;5015229;28;20496;-69
2023/11/16 08:33:33;;;;;;;6.50;2.97;;;10.40;99.90;;;;;;5015473;28;20026;-69
2023/11/16 08:36:00;;;;;;;4.07;2.45;;;10.40;99.90;;;;;;5015388;28;20043;-69
2023/11/16 08:38:26;;;;;;;8.60;3.35;;;10.50;99.90;;;;;;5014052;28;20030;-69
2023/11/16 08:41:00;;;;;;;6.88;3.13;;;10.60;99.90;;;;;;5015219;28;20030;-69
2023/11/16 08:43:28;;;;;;;11.65;3.20;;;10.60;99.90;;;;;;5015181;28;20391;-69
2023/11/16 08:45:55;;;;;;;9.05;3.00;;;10.70;99.90;;;;;;5013426;28;20033;-69
2023/11/16 08:48:31;;;;;;;10.48;3.20;;;10.80;99.90;;;;;;5012861;28;20083;-69
2023/11/16 08:51:05;;;;;;;22.38;3.30;;;10.80;99.90;;;;;;5012856;28;20033;-70
2023/11/16 08:53:36;;;;;;;10.57;3.08;;;10.80;99.90;;;;;;5010587;28;20029;-69
2023/11/16 08:56:07;;;;;;;8.13;2.50;;;10.90;99.90;;;;;;5010523;28;20034;-69
2023/11/16 08:58:36;;;;;;;10.05;2.25;;;11.10;99.90;;;;;;5010850;28;20018;-69
2023/11/16 09:01:03;;;;;;;5.20;1.88;;;11.10;99.90;;;;;;5013879;28;20042;-69
2023/11/16 09:03:33;;;;;;;3.13;1.40;;;11.20;99.90;;;;;;5014973;28;20357;-69
2023/11/16 09:06:02;;;;;;;7.60;1.63;;;11.30;99.90;;;;;;5014857;28;20033;-70
2023/11/16 09:08:28;;;;;;;2.90;1.55;;;11.40;99.90;;;;;;5014416;28;20431;-69
2023/11/16 09:10:54;;;;;;;3.50;1.55;;;11.40;99.90;;;;;;5014511;28;20034;-69
2023/11/16 09:13:20;;;;;;;7.30;1.90;;;11.50;99.90;;;;;;5014320;28;20034;-73
2023/11/16 09:15:46;;;;;;;5.47;1.40;;;11.50;99.90;;;;;;5014130;28;20069;-69
2023/11/16 09:18:13;;;;;;;6.05;3.17;;;11.60;99.90;;;;;;5014313;28;20473;-69
2023/11/16 09:20:43;;;;;;;7.15;2.92;;;11.60;99.90;;;;;;5013962;28;20029;-70
2023/11/16 09:23:10;;;;;;;4.80;1.80;;;11.70;99.90;;;;;;5010407;28;20026;-69
2023/11/16 09:25:36;;;;;;;4.93;2.35;;;11.80;99.90;;;;;;5011713;28;20030;-69
2023/11/16 09:28:02;;;;;;;4.78;2.05;;;11.90;99.90;;;;;;5014104;28;20033;-69
2023/11/16 09:30:28;;;;;;;5.65;1.90;;;11.90;99.90;;;;;;5013013;28;20033;-69
2023/11/16 09:32:54;;;;;;;2.45;1.42;;;11.90;99.90;;;;;;5014138;28;20057;-69
2023/11/16 09:35:23;;;;;;;5.88;1.70;;;12.00;99.90;;;;;;5014329;28;20428;-69
2023/11/16 09:37:49;;;;;;;5.15;1.90;;;12.00;99.90;;;;;;5014016;28;20483;-69
2023/11/16 09:40:24;;;;;;;3.92;1.33;;;12.00;99.90;;;;;;5013806;28;20065;-69
2023/11/16 09:42:57;;;;;;;5.43;1.73;;;12.10;99.90;;;;;;5014371;28;20021;-69
2023/11/16 09:45:27;;;;;;;2.08;1.30;;;12.10;99.90;;;;;;5014092;28;20104;-69
2023/11/16 09:48:06;;;;;;;3.83;2.00;;;12.10;99.90;;;;;;5014209;28;20108;-69
2023/11/16 09:50:35;;;;;;;3.63;1.42;;;12.10;99.90;;;;;;5013888;28;20038;-69
2023/11/16 09:53:02;;;;;;;4.47;1.80;;;12.10;99.90;;;;;;5007877;28;20030;-69
2023/11/16 09:55:32;;;;;;;4.15;1.50;;;12.10;99.90;;;;;;5013847;28;20018;-72
2023/11/16 09:58:08;;;;;;;4.20;1.58;;;12.20;99.90;;;;;;5013806;28;20065;-68
2023/11/16 10:00:35;;;;;;;3.83;1.65;;;;;;;;;;5013776;28;20046;-68
2023/11/16 10:03:04;;;;;;;5.43;1.90;;;12.20;99.90;;;;;;5013338;28;20387;-68
2023/11/16 10:05:35;;;;;;;5.43;1.85;;;12.30;99.90;;;;;;5013460;28;20032;-68
2023/11/16 10:08:14;;;;;;;3.05;1.75;;;12.30;99.90;;;;;;5013411;28;20026;-68
2023/11/16 10:10:52;;;;;;;3.13;1.50;;;12.30;99.90;;;;;;5013317;28;20037;-73
2023/11/16 10:13:18;;;;;;;4.45;1.80;;;12.40;99.90;;;;;;5018008;23;20384;-72
2023/11/16 10:15:47;;;;;;;4.40;1.67;;;12.40;99.90;;;;;;5012366;28;20021;-73
2023/11/16 10:18:13;;;;;;;5.35;1.90;;;12.40;99.90;;;;;;5012725;28;20022;-73
2023/11/16 10:20:45;;;;;;;6.63;1.98;;;12.50;99.90;;;;;;5011779;28;20037;-73
2023/11/16 10:23:14;;;;;;;6.72;2.00;;;12.50;99.90;;;;;;5013493;28;20022;-73
2023/11/16 10:25:41;;;;;;;9.80;1.98;;;12.50;99.90;;;;;;5013332;28;20033;-73
2023/11/16 10:28:34;;;;;;;4.25;2.00;;;12.60;99.90;;;;;;5013054;28;20084;-73
2023/11/16 10:31:01;;;;;;;4.68;2.13;;;12.70;99.90;;;;;;5011346;28;20042;-73
2023/11/16 10:33:28;;;;;;;4.15;1.90;;;12.70;99.90;;;;;;5013022;28;20033;-73
2023/11/16 10:35:55;;;;;;;8.60;2.08;;;12.80;99.90;;;;;;5011665;28;20093;-74
2023/11/16 10:38:22;;;;;;;9.57;2.22;;;12.80;99.90;;;;;;5012662;28;20365;-73
2023/11/16 10:40:51;;;;;;;6.82;1.83;;;12.70;99.90;;;;;;5012594;28;20104;-73
2023/11/16 10:43:27;;;;;;;6.32;1.98;;;12.70;99.90;;;;;;5012859;28;20026;-73
2023/11/16 10:45:57;;;;;;;4.90;1.90;;;12.70;99.90;;;;;;5012760;28;20037;-73
2023/11/16 10:48:24;;;;;;;4.72;1.70;;;12.70;99.90;;;;;;5013668;28;20033;-74
2023/11/16 10:50:51;;;;;;;3.95;2.22;;;12.70;99.90;;;;;;5011748;28;20069;-74
2023/11/16 10:53:22;;;;;;;7.32;1.90;;;12.70;99.90;;;;;;5011499;28;20495;-72
2023/11/16 10:55:55;;;;;;;7.85;1.98;;;12.70;99.90;;;;;;5012786;28;20398;-73
2023/11/16 10:58:29;;;;;;;7.53;2.17;;;12.70;99.90;;;;;;5012848;28;20022;-73
2023/11/16 11:01:08;;;;;;;7.97;2.05;;;12.70;99.90;;;;;;5012824;28;20022;-73
2023/11/16 11:03:37;;;;;;;5.30;1.95;;;12.70;99.90;;;;;;5012669;28;20074;-73
2023/11/16 11:06:06;;;;;;;5.88;1.90;;;12.80;99.90;;;;;;5011595;28;20034;-73
2023/11/16 11:08:38;;;;;;;4.10;2.33;;;12.80;99.90;;;;;;5012657;28;20364;-73
2023/11/16 11:11:04;;;;;;;3.75;1.90;;;12.80;99.90;;;;;;5012593;28;20076;-73
2023/11/16 11:13:33;;;;;;;7.32;2.35;;;12.80;99.90;;;;;;5011370;28;20129;-73
2023/11/16 11:16:06;;;;;;;13.93;3.25;;;12.90;99.90;;;;;;5010941;28;20036;-73
2023/11/16 11:18:32;;;;;;;4.75;1.90;;;12.90;99.90;;;;;;5002704;28;20093;-72
2023/11/16 11:21:08;;;;;;;4.95;1.95;;;12.90;99.90;;;;;;4973250;28;20031;-69
2023/11/16 11:23:34;;;;;;;4.57;2.10;;;12.90;99.90;;;;;;4972888;28;20061;-72
2023/11/16 11:26:06;;;;;;;4.72;1.98;;;12.90;99.90;;;;;;4973411;28;20027;-70
2023/11/16 11:28:38;;;;;;;4.25;2.25;;;12.90;99.90;;;;;;4972661;28;20404;-72
2023/11/16 11:31:05;;;;;;;11.10;2.67;;;12.90;99.90;;;;;;4973088;28;20038;-70
2023/11/16 11:33:37;;;;;;;6.78;2.35;;;13.00;99.90;;;;;;4973199;28;20265;-72
2023/11/16 11:36:10;;;;;;;3.53;2.50;;;12.90;99.90;;;;;;4973217;28;20023;-70
2023/11/16 11:38:39;;;;;;;4.95;2.13;;;13.00;99.90;;;;;;4973173;28;20022;-73
2023/11/16 11:41:12;;;;;;;5.40;2.40;;;13.00;99.90;;;;;;4972819;28;20026;-73
2023/11/16 11:43:39;;;;;;;8.70;2.35;;;13.00;99.90;;;;;;4972408;28;20033;-73
2023/11/16 11:46:09;;;;;;;4.75;2.67;;;13.00;99.90;;;;;;4973464;28;20078;-73
2023/11/16 11:48:40;;;;;;;6.10;2.78;;;13.00;99.90;;;;;;4972965;28;20030;-74
2023/11/16 11:51:08;;;;;;;11.38;2.60;;;13.00;99.90;;;;;;4972848;28;20109;-73
2023/11/16 11:53:34;;;;;;;4.80;2.40;;;13.00;99.90;;;;;;4956292;28;20078;-73
2023/11/16 11:56:02;;;;;;;7.43;2.67;;;13.00;99.90;;;;;;4956490;28;20031;-73
2023/11/16 11:58:28;;;;;;;9.63;2.78;;;12.90;99.90;;;;;;4959901;28;20027;-73
2023/11/16 12:00:56;;;;;;;5.82;2.90;;;12.90;99.90;;;;;;4975981;28;20027;-74
2023/11/16 12:03:22;;;;;;;8.73;2.78;;;13.00;99.90;;;;;;4974214;28;20088;-72
2023/11/16 12:06:02;;;;;;;5.38;2.85;;;13.00;99.90;;;;;;4975045;28;20019;-73
2023/11/16 12:08:41;;;;;;;8.45;3.58;;;13.00;99.90;;;;;;4976591;28;20028;-73
2023/11/16 12:11:11;;;;;;;10.10;3.15;;;13.00;99.90;;;;;;4976718;28;20042;-73
2023/11/16 12:13:42;;;;;;;9.50;3.25;;;13.00;99.90;;;;;;4976702;28;20130;-73
2023/11/16 12:16:09;;;;;;;6.60;3.38;;;13.00;99.90;;;;;;4976776;28;20035;-73
2023/11/16 12:18:35;;;;;;;7.30;3.47;;;13.00;99.90;;;;;;4976647;28;20484;-74
2023/11/16 12:21:17;;;;;;;4.13;2.80;;;13.10;99.90;;;;;;4974678;28;20023;-74
2023/11/16 12:23:53;;;;;;;8.52;2.80;;;13.10;99.90;;;;;;4966875;28;20074;-71
2023/11/16 12:26:29;;;;;;;6.80;2.75;;;13.10;99.90;;;;;;4964187;28;20158;-72
2023/11/16 12:28:56;;;;;;;9.75;2.90;;;13.10;99.90;;;;;;4968516;28;20110;-73
2023/11/16 12:31:26;;;;;;;10.02;3.00;;;13.10;99.90;;;;;;4963383;28;20039;-72
2023/11/16 12:33:52;;;;;;;7.90;2.97;;;13.10;99.90;;;;;;4964607;28;20038;-72
2023/11/16 12:36:25;;;;;;;9.63;3.20;;;13.10;99.90;;;;;;4971445;28;20512;-71
2023/11/16 12:38:52;;;;;;;5.18;2.67;;;13.00;99.90;;;;;;4956721;28;20026;-72
2023/11/16 12:41:19;;;;;;;7.45;3.10;;;13.00;99.90;;;;;;4956146;28;20158;-73
2023/11/16 12:43:45;;;;;;;7.38;3.30;;;13.00;99.90;;;;;;4956593;28;20023;-72
2023/11/16 12:46:12;;;;;;;5.18;3.03;;;13.10;99.90;;;;;;4956369;28;20031;-73
2023/11/16 12:48:41;;;;;;;17.77;9.23;;;13.10;99.90;;;;;;4956679;28;20477;-74
2023/11/16 12:51:12;;;;;;;14.38;7.82;;;13.10;99.90;;;;;;4956580;28;20491;-74
2023/11/16 12:53:40;;;;;;;21.02;12.15;;;13.20;99.90;;;;;;4956482;28;20019;-72
2023/11/16 12:56:07;;;;;;;22.00;13.70;;;13.20;99.90;;;;;;4956600;28;20035;-74